createdAt,value
2019-04-14T00:00:27.765Z,101832.50
2019-04-14T00:02:57.892Z,101831.76
2019-04-14T00:05:27.932Z,101826.77
2019-04-14T00:07:58.042Z,101828.38
2019-04-14T00:10:26.870Z,101820.41
2019-04-14T00:12:55.667Z,101825.95
2019-04-14T00:15:32.320Z,101828.57
2019-04-14T00:17:54.661Z,101822.72
2019-04-14T00:20:23.214Z,101822.58
2019-04-14T00:22:51.694Z,101818.78
2019-04-14T00:25:20.239Z,101822.41
2019-04-14T00:27:49.962Z,101818.14
2019-04-14T00:30:18.898Z,101825.29
2019-04-14T00:32:49.173Z,101824.22
2019-04-14T00:35:34.239Z,101823.91
2019-04-14T00:38:08.467Z,101824.98
2019-04-14T00:40:39.014Z,101821.41
2019-04-14T00:43:09.289Z,101822.47
2019-04-14T00:45:47.793Z,101821.73
2019-04-14T00:48:15.905Z,101825.70
2019-04-14T00:50:43.096Z,101821.72
2019-04-14T00:53:12.184Z,101821.38
2019-04-14T00:55:40.796Z,101820.73
2019-04-14T00:58:10.350Z,101813.00
2019-04-14T01:00:39.096Z,101812.56
2019-04-14T01:03:07.565Z,101803.43
2019-04-14T01:05:37.419Z,101813.11
2019-04-14T01:08:07.259Z,101814.75
2019-04-14T01:10:36.792Z,101810.92
2019-04-14T01:13:08.424Z,101815.70
2019-04-14T01:15:49.065Z,101817.90
2019-04-14T01:18:06.175Z,101821.07
2019-04-14T01:20:36.296Z,101822.60
2019-04-14T01:23:06.226Z,101828.38
2019-04-14T01:25:36.733Z,101820.15
2019-04-14T01:28:05.295Z,101823.01
2019-04-14T01:30:35.032Z,101822.66
2019-04-14T01:33:03.875Z,101821.48
2019-04-14T01:35:33.448Z,101823.35
2019-04-14T01:38:01.901Z,101817.43
2019-04-14T01:40:31.459Z,101826.34
2019-04-14T01:43:00.131Z,101829.76
2019-04-14T01:45:29.617Z,101826.20
2019-04-14T01:47:58.181Z,101828.93
2019-04-14T01:50:34.457Z,101829.07
2019-04-14T01:53:05.383Z,101821.10
2019-04-14T01:55:44.834Z,101826.20
2019-04-14T01:58:14.991Z,101828.06
2019-04-14T02:00:51.275Z,101828.53
2019-04-14T02:03:19.779Z,101827.27
2019-04-14T02:05:49.535Z,101822.43
2019-04-14T02:08:18.105Z,101823.78
2019-04-14T02:10:47.867Z,101823.48
2019-04-14T02:13:16.621Z,101824.91
2019-04-14T02:15:46.239Z,101823.19
2019-04-14T02:18:16.286Z,101821.14
2019-04-14T02:20:44.921Z,101823.26
2019-04-14T02:23:14.579Z,101824.98
2019-04-14T02:25:43.250Z,101832.23
2019-04-14T02:28:11.891Z,101823.03
2019-04-14T02:30:49.338Z,101821.73
2019-04-14T02:33:41.476Z,101815.95
2019-04-14T02:36:14.711Z,101812.85
2019-04-14T02:41:10.708Z,101809.08
2019-04-14T02:43:37.603Z,101804.14
2019-04-14T02:46:02.463Z,101806.30
2019-04-14T02:48:44.834Z,101812.00
2019-04-14T02:51:12.325Z,101811.41
2019-04-14T03:01:21.205Z,101828.18
2019-04-14T03:03:41.594Z,101821.58
2019-04-14T03:06:10.520Z,101827.48
2019-04-14T03:08:47.670Z,101826.13
2019-04-14T03:11:09.399Z,101826.80
2019-04-14T03:16:13.735Z,101826.80
2019-04-14T03:21:38.180Z,101823.31
2019-04-14T03:24:09.079Z,101828.27
2019-04-14T03:29:26.885Z,101832.49
2019-04-14T03:39:36.969Z,101834.17
2019-04-14T03:42:00.388Z,101826.80
2019-04-14T03:44:28.088Z,101819.02
2019-04-14T03:46:57.125Z,101820.44
2019-04-14T03:49:31.816Z,101822.82
2019-04-14T03:51:57.850Z,101823.09
2019-04-14T03:54:20.510Z,101820.32
2019-04-14T03:56:51.232Z,101817.82
2019-04-14T03:59:20.171Z,101819.11
2019-04-14T04:01:49.941Z,101816.98
2019-04-14T04:04:18.933Z,101818.69
2019-04-14T04:06:48.602Z,101811.55
2019-04-14T04:09:17.287Z,101823.61
2019-04-14T04:11:45.800Z,101818.71
2019-04-14T04:14:14.360Z,101823.87
2019-04-14T04:16:57.308Z,101823.36
2019-04-14T04:19:31.576Z,101825.66
2019-04-14T04:22:17.887Z,101837.05
2019-04-14T04:24:48.009Z,101835.66
2019-04-14T04:27:36.146Z,101835.14
2019-04-14T04:30:08.779Z,101833.23
2019-04-14T04:32:51.536Z,101828.11
2019-04-14T04:35:24.655Z,101831.23
2019-04-14T04:37:54.861Z,101833.13
2019-04-14T04:40:28.926Z,101835.99
2019-04-14T04:42:57.647Z,101840.86
2019-04-14T04:45:26.124Z,101836.87
2019-04-14T04:47:55.613Z,101842.16
2019-04-14T04:50:24.286Z,101845.65
2019-04-14T04:52:53.917Z,101840.52
2019-04-14T04:55:22.604Z,101840.80
2019-04-14T04:57:52.316Z,101848.89
2019-04-14T05:00:22.189Z,101844.88
2019-04-14T05:02:50.829Z,101842.37
2019-04-14T05:05:55.808Z,101844.61
2019-04-14T05:08:24.465Z,101852.76
2019-04-14T05:10:57.544Z,101853.28
2019-04-14T05:13:27.029Z,101856.78
2019-04-14T05:15:55.986Z,101856.43
2019-04-14T05:18:24.786Z,101866.93
2019-04-14T05:20:53.439Z,101859.63
2019-04-14T05:23:21.940Z,101858.55
2019-04-14T05:25:51.639Z,101860.95
2019-04-14T05:28:20.338Z,101858.27
2019-04-14T05:30:48.873Z,101857.39
2019-04-14T05:33:18.320Z,101861.64
2019-04-14T05:35:47.143Z,101863.28
2019-04-14T05:38:16.847Z,101859.86
2019-04-14T05:40:45.630Z,101857.69
2019-04-14T05:43:27.355Z,101857.79
2019-04-14T05:45:44.364Z,101861.73
2019-04-14T05:48:13.937Z,101868.26
2019-04-14T05:50:42.502Z,101873.27
2019-04-14T05:53:11.109Z,101872.25
2019-04-14T05:55:39.602Z,101876.81
2019-04-14T05:58:08.102Z,101877.30
2019-04-14T06:00:38.581Z,101878.75
2019-04-14T06:03:08.087Z,101874.33
2019-04-14T06:05:36.605Z,101872.62
2019-04-14T06:08:05.461Z,101876.18
2019-04-14T06:10:34.794Z,101882.05
2019-04-14T06:13:03.306Z,101881.50
2019-04-14T06:15:31.803Z,101887.89
2019-04-14T06:18:00.310Z,101889.78
2019-04-14T06:20:28.776Z,101879.66
2019-04-14T06:22:57.960Z,101880.78
2019-04-14T06:25:26.436Z,101885.30
2019-04-14T06:27:54.944Z,101887.19
2019-04-14T06:30:27.857Z,101884.16
2019-04-14T06:32:57.968Z,101884.73
2019-04-14T06:35:31.065Z,101882.89
2019-04-14T06:38:01.224Z,101885.24
2019-04-14T06:40:39.916Z,101891.22
2019-04-14T06:43:08.397Z,101891.20
2019-04-14T06:45:36.934Z,101883.97
2019-04-14T06:48:05.476Z,101888.00
2019-04-14T06:50:33.967Z,101891.91
2019-04-14T06:53:02.495Z,101893.78
2019-04-14T06:55:30.996Z,101906.75
2019-04-14T06:57:59.532Z,101894.47
2019-04-14T07:00:28.048Z,101896.04
2019-04-14T07:02:56.546Z,101898.69
2019-04-14T07:05:25.017Z,101897.02
2019-04-14T07:07:57.315Z,101895.17
2019-04-14T07:10:23.755Z,101901.17
2019-04-14T07:12:52.844Z,101901.95
2019-04-14T07:15:21.287Z,101904.77
2019-04-14T07:17:49.820Z,101905.29
2019-04-14T07:20:18.262Z,101913.50
2019-04-14T07:22:46.783Z,101911.03
2019-04-14T07:25:15.226Z,101910.45
2019-04-14T07:27:44.028Z,101899.17
2019-04-14T07:30:20.442Z,101907.80
2019-04-14T07:32:53.567Z,101915.81
2019-04-14T07:35:29.969Z,101912.89
2019-04-14T07:38:12.301Z,101912.44
2019-04-14T07:40:58.870Z,101909.19
2019-04-14T07:43:38.271Z,101915.10
2019-04-14T07:46:08.440Z,101910.93
2019-04-14T07:48:44.739Z,101921.22
2019-04-14T07:51:23.893Z,101920.09
2019-04-14T07:53:54.046Z,101919.30
2019-04-14T07:56:24.335Z,101919.58
2019-04-14T07:59:00.460Z,101922.28
2019-04-14T08:01:36.762Z,101928.98
2019-04-14T08:04:12.721Z,101930.75
2019-04-14T08:06:43.186Z,101931.53
2019-04-14T08:09:12.234Z,101930.22
2019-04-14T08:11:41.370Z,101926.48
2019-04-14T08:14:09.863Z,101924.48
2019-04-14T08:16:38.371Z,101938.27
2019-04-14T08:19:06.845Z,101931.06
2019-04-14T08:21:35.359Z,101935.78
2019-04-14T08:24:03.851Z,101935.51
2019-04-14T08:26:32.355Z,101929.92
2019-04-14T08:29:01.093Z,101937.03
2019-04-14T08:31:29.620Z,101938.34
2019-04-14T08:33:58.153Z,101949.11
2019-04-14T08:36:26.618Z,101941.66
2019-04-14T08:38:55.105Z,101944.03
2019-04-14T08:41:23.579Z,101944.88
2019-04-14T08:44:09.074Z,101941.11
2019-04-14T08:46:55.569Z,101944.88
2019-04-14T08:49:42.160Z,101941.17
2019-04-14T08:52:15.472Z,101946.78
2019-04-14T08:54:54.828Z,101936.95
2019-04-14T08:57:40.454Z,101937.95
2019-04-14T09:00:13.313Z,101937.42
2019-04-14T09:02:43.485Z,101936.59
2019-04-14T09:05:19.518Z,101940.67
2019-04-14T09:07:49.736Z,101944.16
2019-04-14T09:10:19.857Z,101942.95
2019-04-14T09:12:53.011Z,101946.87
2019-04-14T09:15:21.941Z,101945.52
2019-04-14T09:17:50.402Z,101946.09
2019-04-14T09:20:18.894Z,101944.73
2019-04-14T09:22:47.378Z,101950.80
2019-04-14T09:25:16.214Z,101947.64
2019-04-14T09:27:44.746Z,101946.36
2019-04-14T09:30:14.076Z,101948.03
2019-04-14T09:32:42.569Z,101950.05
2019-04-14T09:35:11.217Z,101954.71
2019-04-14T09:37:39.701Z,101957.19
2019-04-14T09:40:08.373Z,101959.10
2019-04-14T09:42:36.947Z,101958.79
2019-04-14T09:45:06.572Z,101964.53
2019-04-14T09:47:35.954Z,101970.89
2019-04-14T09:50:06.061Z,101968.86
2019-04-14T09:52:34.644Z,101961.75
2019-04-14T09:55:03.258Z,101958.25
2019-04-14T09:57:31.761Z,101957.66
2019-04-14T10:00:00.224Z,101959.14
2019-04-14T10:02:29.123Z,101961.44
2019-04-14T10:04:57.589Z,101961.92
2019-04-14T10:07:26.163Z,101961.61
2019-04-14T10:09:54.609Z,101960.13
2019-04-14T10:12:23.096Z,101963.30
2019-04-14T10:14:51.582Z,101956.66
2019-04-14T10:17:20.150Z,101958.86
2019-04-14T10:19:48.685Z,101965.36
2019-04-14T10:22:17.210Z,101966.02
2019-04-14T10:24:45.749Z,101962.68
2019-04-14T10:27:14.298Z,101966.80
2019-04-14T10:29:42.774Z,101969.03
2019-04-14T10:32:11.441Z,101977.80
2019-04-14T10:34:39.910Z,101975.50
2019-04-14T10:37:08.540Z,101970.11
2019-04-14T10:39:37.015Z,101976.20
2019-04-14T10:42:05.574Z,101978.09
2019-04-14T10:44:34.027Z,101979.86
2019-04-14T10:47:03.259Z,101986.70
2019-04-14T10:49:31.909Z,101990.95
2019-04-14T10:52:00.647Z,101984.67
2019-04-14T10:54:29.159Z,101986.36
2019-04-14T10:56:57.741Z,101984.86
2019-04-14T10:59:26.220Z,101981.82
2019-04-14T11:01:54.804Z,101988.98
2019-04-14T11:04:23.316Z,101988.81
2019-04-14T11:06:56.268Z,101989.20
2019-04-14T11:09:24.750Z,101982.30
2019-04-14T11:11:53.284Z,101988.86
2019-04-14T11:14:21.817Z,101984.47
2019-04-14T11:16:50.293Z,101982.34
2019-04-14T11:19:18.768Z,101979.28
2019-04-14T11:21:47.438Z,101984.28
2019-04-14T11:24:16.154Z,101978.27
2019-04-14T11:26:44.658Z,101978.39
2019-04-14T11:29:13.159Z,101981.63
2019-04-14T11:31:55.189Z,101975.67
2019-04-14T11:34:31.265Z,101981.00
2019-04-14T11:37:07.197Z,101978.20
2019-04-14T11:39:36.290Z,101975.14
2019-04-14T11:42:04.814Z,101985.53
2019-04-14T11:44:34.640Z,101980.30
2019-04-14T11:47:03.882Z,101975.88
2019-04-14T11:49:32.477Z,101977.55
2019-04-14T11:52:00.985Z,101976.52
2019-04-14T11:54:30.459Z,101975.34
2019-04-14T11:56:59.206Z,101972.58
2019-04-14T11:59:29.649Z,101973.67
2019-04-14T12:02:05.994Z,101974.11
2019-04-14T12:04:36.160Z,101972.20
2019-04-14T12:07:26.588Z,101976.94
2019-04-14T12:09:56.888Z,101971.06
2019-04-14T12:12:25.369Z,101971.83
2019-04-14T12:14:54.730Z,101980.02
2019-04-14T12:17:23.241Z,101972.91
2019-04-14T12:19:52.172Z,101973.28
2019-04-14T12:22:20.640Z,101977.75
2019-04-14T12:24:50.854Z,101971.63
2019-04-14T12:27:21.653Z,101970.26
2019-04-14T12:29:50.247Z,101972.91
2019-04-14T12:32:19.327Z,101970.83
2019-04-14T12:34:48.602Z,101963.48
2019-04-14T12:37:17.114Z,101970.03
2019-04-14T12:39:46.061Z,101977.22
2019-04-14T12:42:34.372Z,101973.80
2019-04-14T12:45:07.720Z,101982.47
2019-04-14T12:47:41.018Z,101974.71
2019-04-14T12:50:11.407Z,101973.55
2019-04-14T12:52:43.576Z,101978.59
2019-04-14T12:55:12.515Z,101975.30
2019-04-14T12:57:51.563Z,101970.34
2019-04-14T13:00:31.931Z,101971.37
2019-04-14T13:03:02.118Z,101965.65
2019-04-14T13:05:30.660Z,101969.25
2019-04-14T13:07:59.192Z,101975.26
2019-04-14T13:10:27.699Z,101965.68
2019-04-14T13:12:56.305Z,101973.34
2019-04-14T13:15:24.818Z,101966.73
2019-04-14T13:17:53.567Z,101966.06
2019-04-14T13:20:22.036Z,101962.09
2019-04-14T13:22:50.687Z,101962.11
2019-04-14T13:25:19.230Z,101961.67
2019-04-14T13:27:50.768Z,101960.69
2019-04-14T13:30:21.119Z,101958.58
2019-04-14T13:32:49.600Z,101960.33
2019-04-14T13:35:18.245Z,101954.54
2019-04-14T13:37:46.728Z,101958.09
2019-04-14T13:40:15.394Z,101949.23
2019-04-14T13:42:43.865Z,101947.52
2019-04-14T13:45:12.566Z,101936.91
2019-04-14T13:47:41.032Z,101943.55
2019-04-14T13:50:10.207Z,101945.73
2019-04-14T13:52:46.450Z,101931.83
2019-04-14T13:55:09.081Z,101938.47
2019-04-14T13:57:37.539Z,101934.66
2019-04-14T14:00:09.932Z,101936.80
2019-04-14T14:02:38.713Z,101939.79
2019-04-14T14:05:07.382Z,101932.16
2019-04-14T14:07:35.930Z,101930.74
2019-04-14T14:10:06.746Z,101946.04
2019-04-14T14:12:36.925Z,101945.16
2019-04-14T14:15:26.232Z,101938.64
2019-04-14T14:18:05.736Z,101939.65
2019-04-14T14:20:36.253Z,101939.49
2019-04-14T14:23:09.350Z,101942.77
2019-04-14T14:25:42.310Z,101941.02
2019-04-14T14:28:10.886Z,101937.34
2019-04-14T14:30:39.361Z,101949.59
2019-04-14T14:33:07.981Z,101941.07
2019-04-14T14:35:36.592Z,101943.75
2019-04-14T14:38:05.294Z,101945.41
2019-04-14T14:40:33.808Z,101940.87
2019-04-14T14:43:02.452Z,101947.09
2019-04-14T14:45:50.771Z,101945.41
2019-04-14T14:48:23.702Z,101955.09
2019-04-14T14:50:54.213Z,101954.59
2019-04-14T14:53:22.661Z,101958.90
2019-04-14T14:55:51.378Z,101958.53
2019-04-14T14:58:19.880Z,101955.48
2019-04-14T15:00:48.454Z,101954.50
2019-04-14T15:03:17.151Z,101949.13
2019-04-14T15:05:45.727Z,101950.91
2019-04-14T15:08:14.199Z,101950.99
2019-04-14T15:10:42.681Z,101955.91
2019-04-14T15:13:11.223Z,101950.98
2019-04-14T15:15:39.770Z,101954.48
2019-04-14T15:18:08.312Z,101955.95
2019-04-14T15:20:36.901Z,101962.25
2019-04-14T15:23:05.663Z,101960.06
2019-04-14T15:25:34.192Z,101955.92
2019-04-14T15:28:02.708Z,101956.30
2019-04-14T15:30:31.257Z,101960.95
2019-04-14T15:32:59.749Z,101953.30
2019-04-14T15:35:28.429Z,101953.80
2019-04-14T15:37:56.909Z,101959.16
2019-04-14T15:40:25.418Z,101959.49
2019-04-14T15:42:53.978Z,101956.98
2019-04-14T15:45:22.516Z,101966.38
2019-04-14T15:47:51.029Z,101960.13
2019-04-14T15:50:19.496Z,101961.42
2019-04-14T15:52:48.037Z,101961.70
2019-04-14T15:55:18.090Z,101959.80
2019-04-14T15:57:48.658Z,101955.64
2019-04-14T16:00:36.732Z,101962.07
2019-04-14T16:03:09.759Z,101959.20
2019-04-14T16:05:42.717Z,101961.91
2019-04-14T16:08:15.713Z,101965.53
2019-04-14T16:10:45.939Z,101962.82
2019-04-14T16:13:24.926Z,101965.11
2019-04-14T16:15:55.085Z,101968.97
2019-04-14T16:18:43.486Z,101969.59
2019-04-14T16:21:12.050Z,101969.94
2019-04-14T16:23:50.061Z,101969.95
2019-04-14T16:26:24.540Z,101971.66
2019-04-14T16:28:57.495Z,101969.97
2019-04-14T16:31:30.208Z,101970.53
2019-04-14T16:34:03.340Z,101974.80
2019-04-14T16:36:31.843Z,101969.64
2019-04-14T16:39:00.353Z,101977.97
2019-04-14T16:41:28.849Z,101978.09
2019-04-14T16:43:57.368Z,101972.61
2019-04-14T16:46:25.944Z,101970.74
2019-04-14T16:48:54.465Z,101974.71
2019-04-14T16:51:30.195Z,101977.44
2019-04-14T16:54:03.254Z,101977.12
2019-04-14T16:56:40.967Z,101971.88
2019-04-14T16:59:11.968Z,101973.61
2019-04-14T17:01:43.296Z,101967.77
2019-04-14T17:04:11.875Z,101967.48
2019-04-14T17:06:40.740Z,101972.65
2019-04-14T17:09:09.313Z,101972.67
2019-04-14T17:11:37.866Z,101984.56
2019-04-14T17:14:14.260Z,101975.92
2019-04-14T17:16:47.721Z,101980.78
2019-04-14T17:19:21.003Z,101977.77
2019-04-14T17:21:52.747Z,101986.22
2019-04-14T17:24:29.320Z,101988.26
2019-04-14T17:27:05.425Z,101989.40
2019-04-14T17:29:35.751Z,101986.17
2019-04-14T17:32:23.982Z,101988.45
2019-04-14T17:34:56.748Z,101987.98
2019-04-14T17:37:42.133Z,101990.31
2019-04-14T17:40:18.406Z,101998.72
2019-04-14T17:43:03.514Z,101998.28
2019-04-14T17:45:36.527Z,102005.91
2019-04-14T17:48:10.213Z,102007.48
2019-04-14T17:50:41.349Z,102002.42
2019-04-14T17:53:14.279Z,102005.16
2019-04-14T17:55:49.894Z,102006.00
2019-04-14T17:58:24.428Z,102003.73
2019-04-14T18:01:12.775Z,102008.33
2019-04-14T18:03:48.843Z,102010.28
2019-04-14T18:06:20.911Z,102004.16
2019-04-14T18:08:51.278Z,102013.37
2019-04-14T18:11:33.331Z,102015.47
2019-04-14T18:14:12.067Z,102016.96
2019-04-14T18:16:54.262Z,102021.16
2019-04-14T18:19:24.646Z,102025.16
2019-04-14T18:21:53.246Z,102031.75
2019-04-14T18:24:21.789Z,102032.22
2019-04-14T18:26:50.263Z,102032.75
2019-04-14T18:29:26.326Z,102030.73
2019-04-14T18:32:05.285Z,102037.03
2019-04-14T18:34:38.577Z,102036.42
2019-04-14T18:37:08.813Z,102043.41
2019-04-14T18:39:51.235Z,102047.63
2019-04-14T18:42:21.371Z,102050.80
2019-04-14T18:44:54.462Z,102051.55
2019-04-14T18:47:27.546Z,102052.94
2019-04-14T18:49:57.650Z,102049.59
2019-04-14T18:52:31.563Z,102049.67
2019-04-14T18:55:07.655Z,102052.56
2019-04-14T18:57:56.444Z,102061.30
2019-04-14T19:00:26.828Z,102058.77
2019-04-14T19:02:55.392Z,102067.89
2019-04-14T19:05:23.892Z,102067.16
2019-04-14T19:07:52.486Z,102066.84
2019-04-14T19:10:21.043Z,102072.61
2019-04-14T19:12:53.814Z,102066.39
2019-04-14T19:15:26.773Z,102077.71
2019-04-14T19:17:56.976Z,102073.15
2019-04-14T19:20:25.425Z,102078.56
2019-04-14T19:22:53.912Z,102081.38
2019-04-14T19:25:22.417Z,102074.30
2019-04-14T19:27:50.999Z,102077.39
2019-04-14T19:30:19.620Z,102080.15
2019-04-14T19:32:48.131Z,102086.00
2019-04-14T19:35:16.609Z,102084.04
2019-04-14T19:37:45.142Z,102083.23
2019-04-14T19:40:13.888Z,102094.18
2019-04-14T19:42:42.589Z,102091.09
2019-04-14T19:45:11.283Z,102090.80
2019-04-14T19:47:39.839Z,102097.94
2019-04-14T19:50:08.677Z,102096.86
2019-04-14T19:52:37.383Z,102095.19
2019-04-14T19:55:19.485Z,102091.36
2019-04-14T19:57:37.555Z,102096.17
2019-04-14T20:00:07.169Z,102096.83
2019-04-14T20:02:35.714Z,102096.77
2019-04-14T20:05:06.272Z,102097.55
2019-04-14T20:07:34.827Z,102102.39
2019-04-14T20:10:04.013Z,102107.66
2019-04-14T20:12:32.491Z,102102.23
2019-04-14T20:15:01.007Z,102099.92
2019-04-14T20:17:31.113Z,102104.14
2019-04-14T20:20:01.253Z,102110.45
2019-04-14T20:22:48.014Z,102105.76
2019-04-14T20:25:33.686Z,102104.80
2019-04-14T20:28:01.362Z,102106.39
2019-04-14T20:30:31.467Z,102107.56
2019-04-14T20:32:59.946Z,102117.83
2019-04-14T20:35:28.490Z,102115.12
2019-04-14T20:37:57.468Z,102111.94
2019-04-14T20:40:25.935Z,102116.19
2019-04-14T20:42:54.405Z,102116.70
2019-04-14T20:45:23.070Z,102122.39
2019-04-14T20:47:51.607Z,102124.56
2019-04-14T20:50:20.221Z,102122.66
2019-04-14T20:52:48.833Z,102126.03
2019-04-14T20:55:17.304Z,102120.88
2019-04-14T20:57:45.996Z,102132.52
2019-04-14T21:00:15.463Z,102132.83
2019-04-14T21:02:54.252Z,102131.09
2019-04-14T21:05:33.436Z,102135.94
2019-04-14T21:08:12.502Z,102144.20
2019-04-14T21:10:42.678Z,102141.32
2019-04-14T21:13:15.652Z,102141.05
2019-04-14T21:15:50.141Z,102148.37
2019-04-14T21:18:20.246Z,102151.33
2019-04-14T21:20:53.350Z,102149.31
2019-04-14T21:23:32.623Z,102156.97
2019-04-14T21:26:05.462Z,102152.33
2019-04-14T21:28:35.579Z,102151.16
2019-04-14T21:31:05.730Z,102162.77
2019-04-14T21:33:54.393Z,102162.61
2019-04-14T21:36:24.785Z,102166.00
2019-04-14T21:38:55.016Z,102167.72
2019-04-14T21:41:35.711Z,102170.33
2019-04-14T21:44:04.879Z,102172.50
2019-04-14T21:46:33.526Z,102168.30
2019-04-14T21:49:02.123Z,102171.28
2019-04-14T21:51:34.642Z,102177.72
2019-04-14T21:54:03.549Z,102178.29
2019-04-14T21:56:33.647Z,102179.66
2019-04-14T21:59:06.926Z,102183.78
2019-04-14T22:01:53.747Z,102184.71
2019-04-14T22:04:29.418Z,102194.66
2019-04-14T22:06:59.642Z,102194.30
2019-04-14T22:09:32.427Z,102197.86
2019-04-14T22:12:02.593Z,102196.61
2019-04-14T22:14:31.038Z,102197.45
2019-04-14T22:16:59.522Z,102202.13
2019-04-14T22:19:28.159Z,102202.29
2019-04-14T22:21:56.700Z,102207.96
2019-04-14T22:24:25.128Z,102204.52
2019-04-14T22:26:53.610Z,102206.09
2019-04-14T22:29:22.124Z,102209.59
2019-04-14T22:31:50.641Z,102218.42
2019-04-14T22:34:19.077Z,102217.44
2019-04-14T22:36:47.569Z,102205.09
2019-04-14T22:39:17.852Z,102214.88
2019-04-14T22:41:46.371Z,102225.04
2019-04-14T22:44:14.874Z,102216.31
2019-04-14T22:46:43.405Z,102231.48
2019-04-14T22:49:11.880Z,102234.81
2019-04-14T22:51:40.370Z,102230.88
2019-04-14T22:54:08.823Z,102234.81
2019-04-14T22:56:39.578Z,102236.99
2019-04-14T22:59:07.836Z,102236.48
2019-04-14T23:01:38.318Z,102233.13
2019-04-14T23:04:10.830Z,102235.58
2019-04-14T23:06:56.044Z,102232.98
2019-04-14T23:09:29.206Z,102234.97
2019-04-14T23:12:02.066Z,102235.86
2019-04-14T23:14:35.163Z,102240.72
2019-04-14T23:17:16.865Z,102241.00
2019-04-14T23:19:49.906Z,102243.08
2019-04-14T23:22:31.954Z,102248.80
2019-04-14T23:25:00.486Z,102255.92
2019-04-14T23:27:29.034Z,102246.14
2019-04-14T23:29:57.492Z,102244.03
2019-04-14T23:32:25.974Z,102243.87
2019-04-14T23:34:54.427Z,102244.43
2019-04-14T23:37:22.906Z,102247.75
2019-04-14T23:39:51.381Z,102250.09
2019-04-14T23:42:20.030Z,102250.31
2019-04-14T23:44:48.503Z,102256.54
2019-04-14T23:47:16.983Z,102253.72
2019-04-14T23:49:45.495Z,102249.78
2019-04-14T23:52:13.931Z,102250.56
2019-04-14T23:54:42.515Z,102253.05
2019-04-14T23:57:10.964Z,102255.39
2019-04-14T23:59:39.448Z,102254.41
